Time;durP1;ratioP1;P1;durP2;ratioP2;P2;SDS_P1;SDS_P2;PMS_P1;PMS_P2;Temp;Humidity;BMP_temperature;BMP_pressure;BME280_temperature;BME280_humidity;BME280_pressure;Samples;Min_cycle;Max_cycle;Signal;HPM_P1;HPM_P2
2024/01/31 00:00:31;;;;;;;32.50;22.93;;;13.80;94.10;;;;;;4595023;19;20002;-76
2024/01/31 00:02:25;;;;;;;33.93;23.23;;;13.90;94.10;;;;;;4593177;19;20011;-76
2024/01/31 00:04:00;;;;;;;34.93;22.80;;;13.80;94.10;;;;;;4593352;19;20022;-76
2024/01/31 00:05:35;;;;;;;32.00;23.20;;;13.80;94.20;;;;;;4592733;19;20021;-76
2024/01/31 00:07:10;;;;;;;31.60;23.27;;;13.80;94.10;;;;;;4594604;19;20179;-76
2024/01/31 00:08:45;;;;;;;32.87;22.80;;;13.80;94.10;;;;;;4594693;19;20013;-76
2024/01/31 00:10:19;;;;;;;35.43;23.63;;;13.80;94.10;;;;;;4594840;19;20010;-76
2024/01/31 00:11:53;;;;;;;34.03;22.17;;;13.80;94.20;;;;;;4594816;19;20002;-76
2024/01/31 00:13:29;;;;;;;36.10;23.60;;;13.80;94.20;;;;;;4594507;19;20015;-76
2024/01/31 00:15:02;;;;;;;33.60;23.57;;;13.80;94.30;;;;;;4593421;19;20007;-76
2024/01/31 00:16:37;;;;;;;31.90;21.20;;;13.70;94.20;;;;;;4594353;19;20024;-76
2024/01/31 00:18:14;;;;;;;36.20;24.57;;;13.70;94.30;;;;;;4594430;19;20020;-76
2024/01/31 00:19:48;;;;;;;33.20;22.43;;;13.70;94.30;;;;;;4593324;19;20012;-76
2024/01/31 00:21:22;;;;;;;32.83;22.60;;;13.70;94.30;;;;;;4594264;19;20019;-76
2024/01/31 00:22:57;;;;;;;32.40;23.70;;;13.70;94.30;;;;;;4594405;19;20002;-76
2024/01/31 00:24:31;;;;;;;36.37;25.60;;;13.70;94.50;;;;;;4594294;19;20342;-77
2024/01/31 00:26:06;;;;;;;33.20;22.00;;;13.70;94.40;;;;;;4591954;19;20437;-76
2024/01/31 00:27:43;;;;;;;31.23;22.27;;;13.70;94.40;;;;;;4592536;19;20006;-76
2024/01/31 00:29:17;;;;;;;34.83;24.37;;;13.60;94.40;;;;;;4594166;19;20010;-76
2024/01/31 00:30:52;;;;;;;31.83;23.17;;;13.60;94.40;;;;;;4594228;19;20007;-76
2024/01/31 00:32:27;;;;;;;32.33;23.70;;;13.60;94.50;;;;;;4594081;19;20010;-76
2024/01/31 00:34:01;;;;;;;34.37;24.57;;;13.60;94.50;;;;;;4594135;19;20027;-76
2024/01/31 00:35:36;;;;;;;30.57;23.83;;;13.60;94.50;;;;;;4593779;19;20421;-76
2024/01/31 00:37:11;;;;;;;31.20;23.27;;;13.60;94.50;;;;;;4594164;19;20007;-76
2024/01/31 00:38:47;;;;;;;32.00;22.37;;;13.60;94.50;;;;;;4592455;19;20021;-76
2024/01/31 00:40:20;;;;;;;34.00;24.23;;;13.60;94.50;;;;;;4593575;19;20003;-76
2024/01/31 00:41:55;;;;;;;33.87;23.00;;;13.60;94.60;;;;;;4593962;19;20002;-76
2024/01/31 00:43:30;;;;;;;31.30;23.17;;;13.60;94.60;;;;;;4593972;19;20018;-76
2024/01/31 00:45:09;;;;;;;33.20;23.50;;;13.50;94.60;;;;;;4592503;19;20299;-76
2024/01/31 00:46:46;;;;;;;33.40;23.53;;;13.50;94.70;;;;;;4592502;19;20032;-76
2024/01/31 00:48:20;;;;;;;34.33;24.80;;;13.50;94.70;;;;;;4592541;19;20436;-76
2024/01/31 00:49:54;;;;;;;30.77;21.70;;;13.50;94.70;;;;;;4592300;19;20457;-76
2024/01/31 00:51:30;;;;;;;34.77;23.33;;;13.50;94.80;;;;;;4593408;19;20010;-76
2024/01/31 00:53:05;;;;;;;32.43;21.57;;;13.50;94.70;;;;;;4593706;19;20007;-76
2024/01/31 00:54:40;;;;;;;34.63;23.67;;;13.50;94.70;;;;;;4592565;19;20021;-76
2024/01/31 00:56:14;;;;;;;32.97;22.43;;;13.50;94.70;;;;;;4592857;19;20007;-77
2024/01/31 00:57:50;;;;;;;32.83;23.27;;;13.50;94.70;;;;;;4593665;19;20010;-76
2024/01/31 00:59:25;;;;;;;30.97;21.97;;;13.50;94.80;;;;;;4592623;19;20306;-76
2024/01/31 01:16:33;;;;;;;34.27;22.83;;;13.40;94.90;;;;;;4569313;19;20025;-77
2024/01/31 01:18:08;;;;;;;34.80;24.43;;;13.40;95.00;;;;;;4593346;19;20011;-76
2024/01/31 01:19:42;;;;;;;35.57;23.40;;;13.40;95.00;;;;;;4593467;19;20006;-76
2024/01/31 01:21:16;;;;;;;34.67;24.17;;;13.40;95.00;;;;;;4593395;19;20325;-76
2024/01/31 01:22:51;;;;;;;34.50;23.10;;;13.40;95.10;;;;;;4591707;19;20036;-76
2024/01/31 01:24:25;;;;;;;33.33;23.53;;;13.40;95.40;;;;;;4592766;19;20322;-76
2024/01/31 01:25:59;;;;;;;34.03;24.30;;;13.40;95.20;;;;;;4591619;19;20014;-76
2024/01/31 01:27:38;;;;;;;35.50;23.87;;;13.40;95.20;;;;;;4591687;19;20414;-76
2024/01/31 01:29:12;;;;;;;32.90;24.00;;;13.40;95.30;;;;;;4593004;19;20524;-76
2024/01/31 01:30:47;;;;;;;35.97;23.93;;;13.40;95.30;;;;;;4591606;19;19998;-76
2024/01/31 01:32:22;;;;;;;33.73;22.80;;;13.40;95.30;;;;;;4592841;19;19999;-76
2024/01/31 01:33:59;;;;;;;31.23;22.23;;;13.40;95.30;;;;;;4591885;19;19995;-77
2024/01/31 01:35:33;;;;;;;31.10;22.13;;;13.40;95.30;;;;;;4592628;19;20390;-76
2024/01/31 01:37:09;;;;;;;31.17;23.23;;;13.40;95.40;;;;;;4591654;19;20011;-76
2024/01/31 01:38:44;;;;;;;32.90;24.13;;;13.40;95.30;;;;;;4592862;19;20003;-76
2024/01/31 01:40:18;;;;;;;34.90;23.07;;;13.30;95.40;;;;;;4591716;19;20349;-76
2024/01/31 01:41:56;;;;;;;33.90;22.30;;;13.30;95.40;;;;;;4592488;19;20031;-76
2024/01/31 01:43:30;;;;;;;32.77;23.40;;;13.30;95.40;;;;;;4593052;19;20070;-76
2024/01/31 01:45:04;;;;;;;31.70;22.80;;;13.30;95.50;;;;;;4591341;19;20013;-76
2024/01/31 01:46:39;;;;;;;32.13;22.57;;;13.30;95.50;;;;;;4591530;19;20016;-76
2024/01/31 01:48:19;;;;;;;33.27;22.60;;;13.30;95.50;;;;;;4592190;19;20003;-76
2024/01/31 01:49:55;;;;;;;34.08;23.45;;;13.30;95.60;;;;;;4591332;19;20017;-76
2024/01/31 01:51:28;;;;;;;32.50;22.40;;;13.30;95.70;;;;;;4592524;19;20424;-76
2024/01/31 01:53:02;;;;;;;28.37;22.47;;;13.30;95.80;;;;;;4592503;19;19998;-76
2024/01/31 01:54:37;;;;;;;32.37;23.73;;;13.30;95.80;;;;;;4591244;19;20023;-76
2024/01/31 01:56:13;;;;;;;31.87;24.37;;;13.30;95.80;;;;;;4590951;19;20003;-76
2024/01/31 01:57:47;;;;;;;34.33;23.53;;;13.30;95.80;;;;;;4592179;19;20033;-76
2024/01/31 01:59:23;;;;;;;34.20;23.10;;;13.30;95.80;;;;;;4592415;19;20039;-76
2024/01/31 02:00:57;;;;;;;33.30;22.23;;;13.30;95.90;;;;;;4592390;19;20005;-76
2024/01/31 02:02:32;;;;;;;30.90;21.67;;;13.30;95.90;;;;;;4591297;19;19999;-76
2024/01/31 02:04:08;;;;;;;31.73;22.93;;;13.30;95.80;;;;;;4591090;19;20006;-76
2024/01/31 02:05:44;;;;;;;31.83;22.97;;;13.30;96.00;;;;;;4589405;19;20422;-76
2024/01/31 02:07:24;;;;;;;31.90;22.33;;;13.30;95.80;;;;;;4590966;19;20066;-76
2024/01/31 02:09:02;;;;;;;31.77;22.37;;;13.30;95.80;;;;;;4590997;19;20004;-77
2024/01/31 02:10:36;;;;;;;31.17;22.73;;;13.30;95.80;;;;;;4592132;19;20109;-77
2024/01/31 02:12:11;;;;;;;29.63;22.47;;;13.30;95.90;;;;;;4592229;19;20021;-76
2024/01/31 02:13:46;;;;;;;34.47;23.43;;;13.20;96.00;;;;;;4590936;19;20013;-76
2024/01/31 02:15:20;;;;;;;31.03;22.77;;;13.30;96.10;;;;;;4591764;19;20025;-76
2024/01/31 02:16:57;;;;;;;32.83;24.40;;;13.30;96.10;;;;;;4590818;19;20094;-76
2024/01/31 02:18:33;;;;;;;31.03;22.53;;;13.30;96.10;;;;;;4592412;19;20007;-76
2024/01/31 02:20:15;;;;;;;30.87;22.70;;;13.20;96.10;;;;;;4592322;19;20003;-76
2024/01/31 02:21:50;;;;;;;31.03;22.07;;;13.30;96.00;;;;;;4590651;19;20021;-76
2024/01/31 02:23:25;;;;;;;30.20;21.70;;;13.20;96.00;;;;;;4590925;19;20131;-76
2024/01/31 02:25:01;;;;;;;32.83;22.73;;;13.20;96.00;;;;;;4591642;19;20062;-77
2024/01/31 02:26:36;;;;;;;34.37;24.13;;;13.20;96.00;;;;;;4591233;19;20010;-76
2024/01/31 02:28:11;;;;;;;31.30;24.03;;;13.20;96.00;;;;;;4591284;19;20006;-76
2024/01/31 02:29:44;;;;;;;32.73;23.60;;;13.20;96.00;;;;;;4591965;19;20003;-76
2024/01/31 02:31:18;;;;;;;35.33;23.60;;;13.20;96.10;;;;;;4591906;19;20010;-76
2024/01/31 02:32:56;;;;;;;29.43;22.90;;;13.20;96.10;;;;;;4591906;19;20385;-76
2024/01/31 02:34:30;;;;;;;30.83;23.83;;;13.20;96.10;;;;;;4592170;19;20006;-76
2024/01/31 02:36:04;;;;;;;32.33;22.97;;;13.20;96.20;;;;;;4591368;19;20002;-76
2024/01/31 02:37:43;;;;;;;34.17;23.53;;;13.20;96.20;;;;;;4591800;19;20297;-76
2024/01/31 02:39:17;;;;;;;29.50;22.57;;;13.20;96.20;;;;;;4591820;19;20018;-76
2024/01/31 02:40:51;;;;;;;32.10;23.53;;;13.20;96.30;;;;;;4592017;19;20024;-76
2024/01/31 02:42:27;;;;;;;32.07;23.43;;;13.20;96.40;;;;;;4591981;19;20414;-76
2024/01/31 02:44:02;;;;;;;30.80;22.53;;;13.20;96.40;;;;;;4590528;19;20073;-76
2024/01/31 02:45:36;;;;;;;31.93;23.13;;;13.20;96.50;;;;;;4591237;19;20021;-76
2024/01/31 02:47:11;;;;;;;31.50;23.17;;;13.20;96.60;;;;;;4590382;19;20006;-76
2024/01/31 02:48:46;;;;;;;29.80;21.80;;;13.20;96.60;;;;;;4590059;19;20003;-76
2024/01/31 02:50:20;;;;;;;31.47;22.57;;;13.20;96.60;;;;;;4591499;19;20720;-76
2024/01/31 02:51:55;;;;;;;32.57;22.80;;;13.20;96.70;;;;;;4590294;19;20003;-76
2024/01/31 02:53:31;;;;;;;30.83;22.30;;;13.20;96.70;;;;;;4590412;19;20027;-76
2024/01/31 02:55:05;;;;;;;32.67;24.30;;;13.20;96.70;;;;;;4590402;19;20032;-76
2024/01/31 02:56:41;;;;;;;29.63;22.20;;;13.20;96.80;;;;;;4590244;19;20021;-76
2024/01/31 02:58:15;;;;;;;30.10;21.83;;;13.20;96.80;;;;;;4590091;19;20122;-76
2024/01/31 02:59:49;;;;;;;30.77;22.90;;;13.20;96.80;;;;;;4590302;19;20006;-76
2024/01/31 03:01:25;;;;;;;29.77;22.90;;;13.20;96.80;;;;;;4591144;19;20491;-76
2024/01/31 03:02:59;;;;;;;29.13;21.63;;;13.20;96.90;;;;;;4590241;19;20009;-77
2024/01/31 03:04:34;;;;;;;28.23;21.90;;;13.20;97.00;;;;;;4589854;19;20454;-76
2024/01/31 03:06:09;;;;;;;30.97;22.83;;;13.20;97.00;;;;;;4590504;19;20002;-76
2024/01/31 03:07:44;;;;;;;28.97;21.83;;;13.10;97.00;;;;;;4590829;19;20347;-76
2024/01/31 03:09:18;;;;;;;26.97;22.07;;;13.10;97.00;;;;;;4591247;19;20010;-76
2024/01/31 03:10:53;;;;;;;26.43;21.60;;;13.10;97.00;;;;;;4589971;19;20009;-76
2024/01/31 03:12:27;;;;;;;29.77;22.23;;;13.10;97.00;;;;;;4589684;19;20017;-76
2024/01/31 03:14:01;;;;;;;30.83;22.83;;;13.10;97.10;;;;;;4591094;19;20021;-76
2024/01/31 03:15:36;;;;;;;29.37;22.87;;;13.10;97.10;;;;;;4589845;19;20006;-76
2024/01/31 03:17:10;;;;;;;30.43;22.60;;;13.10;97.10;;;;;;4589890;19;20018;-75
2024/01/31 03:18:44;;;;;;;30.10;22.27;;;13.10;97.20;;;;;;4594420;19;19998;-76
2024/01/31 03:20:19;;;;;;;29.40;22.60;;;13.10;97.20;;;;;;4595436;19;20017;-76
2024/01/31 03:21:53;;;;;;;30.67;21.83;;;13.10;97.20;;;;;;4595607;19;20002;-76
2024/01/31 03:23:27;;;;;;;33.03;23.50;;;13.10;97.30;;;;;;4595892;19;19995;-76
2024/01/31 03:25:03;;;;;;;31.93;22.73;;;13.10;97.30;;;;;;4594155;19;20014;-76
2024/01/31 03:26:37;;;;;;;28.80;22.40;;;13.10;97.30;;;;;;4594338;19;20013;-76
2024/01/31 03:28:11;;;;;;;30.53;21.30;;;13.10;97.40;;;;;;4594804;19;20422;-76
2024/01/31 03:29:47;;;;;;;29.90;21.50;;;13.10;97.40;;;;;;4595400;19;20033;-76
2024/01/31 03:31:22;;;;;;;28.60;21.70;;;13.10;97.40;;;;;;4595673;19;20020;-76
2024/01/31 03:32:55;;;;;;;32.00;23.73;;;13.10;97.50;;;;;;4595688;19;20061;-76
2024/01/31 03:34:32;;;;;;;30.73;22.83;;;13.10;97.50;;;;;;4594174;19;20027;-76
2024/01/31 03:36:09;;;;;;;27.97;20.50;;;13.10;97.50;;;;;;4594660;19;20765;-76
2024/01/31 03:37:44;;;;;;;29.50;22.33;;;13.10;97.60;;;;;;4595436;19;20326;-76
2024/01/31 03:39:20;;;;;;;27.27;21.83;;;13.10;97.60;;;;;;4595652;19;20010;-77
2024/01/31 03:40:54;;;;;;;27.67;20.47;;;13.10;97.60;;;;;;4595490;19;20006;-77
2024/01/31 03:42:29;;;;;;;34.07;23.53;;;13.10;97.60;;;;;;4595480;19;20006;-76
2024/01/31 03:44:04;;;;;;;30.03;20.57;;;13.10;97.60;;;;;;4593859;19;20010;-77
2024/01/31 03:45:38;;;;;;;30.43;21.97;;;13.10;97.60;;;;;;4593915;19;20002;-77
2024/01/31 03:47:12;;;;;;;30.47;22.40;;;13.10;97.70;;;;;;4594803;19;20015;-76
2024/01/31 03:48:47;;;;;;;27.87;21.67;;;13.10;97.70;;;;;;4592321;19;20003;-77
2024/01/31 03:50:21;;;;;;;26.50;21.00;;;13.10;97.70;;;;;;4594757;19;20306;-76
2024/01/31 03:51:55;;;;;;;31.33;21.80;;;13.10;97.70;;;;;;4595243;19;20006;-77
2024/01/31 03:53:31;;;;;;;29.70;23.43;;;13.10;97.90;;;;;;4595250;19;20007;-76
2024/01/31 03:55:05;;;;;;;27.63;22.07;;;13.10;97.70;;;;;;4594893;19;20035;-76
2024/01/31 03:56:40;;;;;;;25.30;21.97;;;13.10;97.70;;;;;;4593806;19;20020;-77
2024/01/31 03:58:15;;;;;;;30.67;21.67;;;13.10;97.70;;;;;;4594991;19;20007;-76
2024/01/31 03:59:49;;;;;;;29.97;21.90;;;13.10;97.70;;;;;;4593502;19;20014;-76
2024/01/31 04:01:23;;;;;;;28.87;21.13;;;13.10;97.80;;;;;;4594737;19;20003;-75
2024/01/31 04:02:59;;;;;;;27.67;22.00;;;13.10;97.80;;;;;;4594906;19;19999;-77
2024/01/31 04:04:33;;;;;;;27.67;20.83;;;13.10;97.80;;;;;;4593512;19;20002;-77
2024/01/31 04:06:09;;;;;;;29.60;22.43;;;13.10;97.90;;;;;;4592802;19;20006;-76
2024/01/31 04:07:45;;;;;;;29.17;22.30;;;13.10;97.90;;;;;;4594378;19;20320;-77
2024/01/31 04:09:19;;;;;;;28.57;21.37;;;13.10;97.90;;;;;;4594711;19;20010;-76
2024/01/31 04:10:54;;;;;;;31.50;21.00;;;13.10;98.00;;;;;;4594903;19;19998;-77
2024/01/31 04:12:29;;;;;;;27.93;21.60;;;13.10;98.00;;;;;;4593261;19;20011;-76
2024/01/31 04:14:04;;;;;;;29.13;22.57;;;13.10;98.10;;;;;;4594229;19;20429;-76
2024/01/31 04:15:38;;;;;;;26.57;22.07;;;13.10;98.10;;;;;;4594751;19;20066;-77
2024/01/31 04:17:15;;;;;;;30.20;22.57;;;13.10;98.10;;;;;;4593252;19;20018;-77
2024/01/31 04:18:50;;;;;;;26.30;21.13;;;13.10;98.40;;;;;;4594421;19;20022;-77
2024/01/31 04:20:24;;;;;;;27.47;22.00;;;13.10;98.20;;;;;;4594983;19;19998;-77
2024/01/31 04:21:59;;;;;;;28.87;22.30;;;13.10;98.20;;;;;;4594488;19;20029;-78
2024/01/31 04:23:35;;;;;;;27.67;21.30;;;13.20;98.10;;;;;;4592779;19;20014;-76
2024/01/31 04:25:10;;;;;;;27.73;21.47;;;13.20;98.10;;;;;;4593828;19;20317;-77
2024/01/31 04:26:45;;;;;;;28.87;21.53;;;13.20;98.10;;;;;;4592912;19;20450;-76
2024/01/31 04:28:21;;;;;;;27.60;22.30;;;13.30;98.00;;;;;;4591879;19;20421;-77
2024/01/31 04:29:55;;;;;;;26.33;21.43;;;13.30;98.10;;;;;;4592662;19;20058;-77
2024/01/31 04:31:30;;;;;;;27.33;21.50;;;13.40;98.00;;;;;;4592908;19;20351;-77
2024/01/31 04:33:04;;;;;;;24.60;21.07;;;13.40;98.00;;;;;;4593692;19;20017;-77
2024/01/31 04:34:41;;;;;;;27.60;21.53;;;13.40;97.90;;;;;;4593934;19;19999;-77
2024/01/31 04:36:16;;;;;;;25.90;21.13;;;13.40;97.90;;;;;;4593404;19;20305;-77
2024/01/31 04:37:50;;;;;;;27.40;22.67;;;13.40;97.90;;;;;;4594277;19;20445;-77
2024/01/31 04:39:25;;;;;;;27.50;22.47;;;13.40;97.90;;;;;;4593963;19;20010;-77
2024/01/31 04:41:02;;;;;;;30.03;22.20;;;13.40;97.90;;;;;;4594093;19;20014;-78
2024/01/31 04:42:37;;;;;;;29.30;22.60;;;13.50;97.90;;;;;;4592397;19;20015;-77
2024/01/31 04:44:11;;;;;;;26.70;21.10;;;13.50;97.90;;;;;;4592425;19;20006;-77
2024/01/31 04:45:47;;;;;;;25.10;20.63;;;13.50;97.90;;;;;;4593181;19;20033;-77
2024/01/31 04:47:22;;;;;;;27.20;22.40;;;13.50;97.90;;;;;;4593733;19;20291;-77
2024/01/31 04:48:56;;;;;;;26.00;20.90;;;13.50;98.00;;;;;;4591601;19;20023;-76
2024/01/31 04:50:31;;;;;;;27.53;22.03;;;13.60;98.10;;;;;;4593559;19;20003;-76
2024/01/31 04:52:06;;;;;;;26.73;21.53;;;13.60;98.10;;;;;;4593861;19;20002;-76
2024/01/31 04:53:42;;;;;;;27.43;21.93;;;13.70;98.00;;;;;;4593832;19;20002;-77
2024/01/31 04:55:17;;;;;;;27.77;21.10;;;13.80;97.90;;;;;;4593824;19;20446;-76
2024/01/31 04:56:51;;;;;;;26.13;20.03;;;13.90;97.90;;;;;;4592512;19;20007;-76
2024/01/31 04:58:27;;;;;;;24.83;20.40;;;14.00;97.80;;;;;;4593441;19;20298;-76
2024/01/31 05:00:04;;;;;;;24.73;19.90;;;14.10;97.60;;;;;;4593536;19;20007;-77
2024/01/31 05:01:38;;;;;;;25.77;20.93;;;14.20;97.60;;;;;;4593387;19;20014;-76
2024/01/31 05:03:12;;;;;;;27.50;21.47;;;14.20;97.60;;;;;;4593705;19;20014;-76
2024/01/31 05:04:48;;;;;;;28.47;22.30;;;14.30;97.30;;;;;;4593447;19;20007;-76
2024/01/31 05:06:23;;;;;;;28.10;21.23;;;14.40;97.30;;;;;;4592604;19;20006;-76
2024/01/31 05:07:57;;;;;;;27.17;21.27;;;14.50;97.20;;;;;;4592853;19;20006;-76
2024/01/31 05:09:32;;;;;;;28.80;22.67;;;14.50;97.20;;;;;;4593574;19;20006;-77
2024/01/31 05:11:06;;;;;;;28.37;22.80;;;14.60;97.10;;;;;;4593180;19;19998;-77
2024/01/31 05:12:40;;;;;;;31.33;23.10;;;14.60;97.10;;;;;;4593024;19;20030;-76
2024/01/31 05:14:16;;;;;;;26.37;22.10;;;14.60;97.20;;;;;;4592851;19;20014;-77
2024/01/31 05:15:51;;;;;;;26.67;20.93;;;14.60;97.30;;;;;;4592795;19;20085;-79
2024/01/31 05:17:25;;;;;;;24.23;19.73;;;14.60;97.20;;;;;;4593180;19;20010;-76
2024/01/31 05:19:01;;;;;;;25.43;21.07;;;14.70;97.30;;;;;;4593079;19;20429;-76
2024/01/31 05:20:35;;;;;;;26.73;20.77;;;14.70;97.40;;;;;;4592166;19;20007;-76
2024/01/31 05:22:09;;;;;;;24.43;20.10;;;14.70;97.40;;;;;;4592935;19;20021;-77
2024/01/31 05:23:45;;;;;;;28.77;20.97;;;14.60;97.40;;;;;;4593386;19;20337;-76
2024/01/31 05:25:20;;;;;;;26.13;20.13;;;14.60;97.40;;;;;;4593237;19;19999;-77
2024/01/31 05:26:56;;;;;;;25.47;20.20;;;14.50;97.70;;;;;;4592220;19;20310;-77
2024/01/31 05:28:31;;;;;;;27.37;21.80;;;14.50;97.60;;;;;;4592122;19;20006;-77
2024/01/31 05:30:06;;;;;;;29.57;21.23;;;14.50;97.70;;;;;;4592824;19;20070;-77
2024/01/31 05:31:42;;;;;;;26.80;20.63;;;14.50;97.70;;;;;;4592795;19;20007;-77
2024/01/31 05:33:18;;;;;;;24.73;20.07;;;14.60;97.70;;;;;;4591518;19;20015;-78
2024/01/31 05:34:52;;;;;;;27.97;21.00;;;14.70;97.70;;;;;;4592656;19;20421;-77
2024/01/31 05:36:26;;;;;;;28.27;22.23;;;14.70;97.60;;;;;;4592347;19;20314;-77
2024/01/31 05:38:03;;;;;;;24.33;20.83;;;14.70;97.60;;;;;;4592867;19;20405;-77
2024/01/31 05:39:37;;;;;;;26.77;21.53;;;14.80;97.50;;;;;;4592864;19;20002;-77
2024/01/31 05:41:12;;;;;;;27.10;21.30;;;14.80;97.50;;;;;;4592653;19;20106;-77
2024/01/31 05:42:47;;;;;;;25.27;20.50;;;14.90;97.40;;;;;;4592677;19;20007;-77
2024/01/31 05:44:21;;;;;;;25.77;21.17;;;14.90;97.40;;;;;;4592845;19;20006;-78
2024/01/31 05:45:56;;;;;;;23.83;19.40;;;14.90;97.40;;;;;;4592469;19;20337;-77
2024/01/31 05:47:31;;;;;;;27.77;21.23;;;15.00;97.50;;;;;;4591111;19;20014;-78
2024/01/31 05:49:06;;;;;;;25.77;20.90;;;15.00;97.40;;;;;;4591096;19;19995;-77
2024/01/31 05:50:40;;;;;;;26.13;21.57;;;15.10;97.40;;;;;;4591915;19;20014;-77
2024/01/31 05:52:17;;;;;;;24.60;21.20;;;15.10;97.40;;;;;;4592331;19;20036;-77
2024/01/31 05:53:51;;;;;;;27.10;20.53;;;15.10;97.30;;;;;;4590918;19;20014;-78
2024/01/31 05:55:25;;;;;;;26.43;20.87;;;15.10;97.30;;;;;;4592198;19;20074;-79
2024/01/31 05:57:00;;;;;;;26.17;20.47;;;15.10;97.50;;;;;;4591558;19;20319;-78
2024/01/31 05:58:35;;;;;;;27.50;20.90;;;15.10;97.30;;;;;;4590871;19;20415;-79
2024/01/31 06:00:11;;;;;;;26.47;21.90;;;15.10;97.30;;;;;;4592123;19;19999;-79
2024/01/31 06:01:47;;;;;;;23.17;19.20;;;15.10;97.30;;;;;;4592386;19;20329;-79
2024/01/31 06:03:23;;;;;;;28.50;21.40;;;15.10;97.30;;;;;;4592229;19;20003;-80
2024/01/31 06:04:58;;;;;;;24.93;19.90;;;15.10;97.30;;;;;;4592275;19;20011;-79
2024/01/31 06:06:34;;;;;;;25.90;20.77;;;15.00;97.40;;;;;;4591740;19;20017;-79
2024/01/31 06:08:09;;;;;;;24.90;20.00;;;15.00;97.40;;;;;;4591872;19;19999;-79
2024/01/31 06:09:44;;;;;;;22.70;19.00;;;15.00;97.40;;;;;;4592546;19;20009;-79
2024/01/31 06:11:19;;;;;;;25.43;19.90;;;14.90;97.40;;;;;;4592654;19;20379;-79
2024/01/31 06:12:53;;;;;;;25.73;20.33;;;14.90;97.40;;;;;;4592506;19;19998;-79
2024/01/31 06:14:27;;;;;;;26.17;21.27;;;14.80;97.60;;;;;;4592147;19;20022;-79
2024/01/31 06:16:03;;;;;;;33.83;26.53;;;14.80;97.60;;;;;;4591508;19;20006;-80
2024/01/31 06:17:38;;;;;;;34.13;28.10;;;14.70;97.60;;;;;;4592132;19;20006;-79
2024/01/31 06:19:12;;;;;;;27.97;23.00;;;14.70;97.70;;;;;;4592429;19;20029;-79
2024/01/31 06:20:48;;;;;;;25.33;20.93;;;14.70;97.80;;;;;;4592219;19;20314;-81
2024/01/31 06:22:22;;;;;;;24.83;20.30;;;14.60;97.80;;;;;;4592409;19;20003;-80
2024/01/31 06:23:57;;;;;;;25.63;20.87;;;14.60;97.80;;;;;;4591021;19;20457;-79
2024/01/31 06:25:33;;;;;;;25.43;20.70;;;14.50;97.90;;;;;;4591730;19;20509;-79
2024/01/31 06:27:08;;;;;;;28.60;20.63;;;14.50;98.00;;;;;;4590782;19;20014;-79
2024/01/31 06:28:42;;;;;;;25.23;21.53;;;14.40;98.00;;;;;;4591047;19;20061;-79
2024/01/31 06:30:21;;;;;;;27.90;21.60;;;14.40;98.10;;;;;;4592050;19;20304;-83
2024/01/31 06:31:59;;;;;;;30.70;24.13;;;14.40;98.20;;;;;;4590767;19;20007;-80
2024/01/31 06:33:35;;;;;;;25.93;21.57;;;14.30;98.30;;;;;;4590662;19;20302;-79
2024/01/31 06:35:10;;;;;;;30.37;23.63;;;14.30;98.30;;;;;;4591694;19;20313;-79
2024/01/31 06:36:44;;;;;;;35.80;26.63;;;14.30;98.40;;;;;;4589552;19;20418;-79
2024/01/31 06:38:19;;;;;;;35.70;26.80;;;14.20;98.50;;;;;;4590698;19;20050;-79
2024/01/31 06:39:56;;;;;;;35.53;26.90;;;14.30;98.60;;;;;;4591808;19;20010;-80
2024/01/31 06:41:30;;;;;;;34.17;26.50;;;14.20;98.60;;;;;;4591699;19;20040;-79
2024/01/31 06:43:04;;;;;;;31.73;24.43;;;14.20;98.60;;;;;;4591797;19;20002;-79
2024/01/31 06:44:37;;;;;;;32.27;23.60;;;14.10;98.60;;;;;;4592053;19;20078;-79
2024/01/31 06:46:15;;;;;;;33.07;24.50;;;14.10;98.70;;;;;;4591755;19;20011;-79
2024/01/31 06:47:49;;;;;;;28.77;22.93;;;14.10;98.80;;;;;;4591237;19;20026;-79
2024/01/31 06:49:24;;;;;;;31.30;25.53;;;14.10;98.80;;;;;;4591359;19;20003;-79
2024/01/31 06:51:00;;;;;;;34.40;23.57;;;14.10;98.90;;;;;;4590308;19;20013;-79
2024/01/31 06:52:35;;;;;;;32.97;25.00;;;14.10;98.90;;;;;;4592631;19;20010;-79
2024/01/31 06:54:09;;;;;;;56.13;46.03;;;14.00;99.00;;;;;;4595383;19;20440;-79
2024/01/31 06:55:46;;;;;;;45.20;35.17;;;14.00;99.00;;;;;;4594810;19;20025;-79
2024/01/31 06:57:20;;;;;;;29.27;22.40;;;14.00;99.10;;;;;;4595193;19;20006;-79
2024/01/31 06:58:56;;;;;;;27.80;21.87;;;14.00;99.10;;;;;;4594822;19;20306;-79
2024/01/31 07:00:32;;;;;;;27.27;21.40;;;13.90;99.10;;;;;;4596350;19;20032;-79
2024/01/31 07:02:06;;;;;;;28.20;24.37;;;13.90;99.20;;;;;;4594742;19;20006;-80
2024/01/31 07:03:41;;;;;;;28.13;21.50;;;13.90;99.30;;;;;;4594744;19;20002;-78
2024/01/31 07:05:16;;;;;;;25.70;20.87;;;13.90;99.40;;;;;;4594876;19;20360;-79
2024/01/31 07:06:50;;;;;;;27.83;20.53;;;13.90;99.40;;;;;;4593654;19;20017;-79
2024/01/31 07:08:24;;;;;;;27.17;20.40;;;13.80;99.50;;;;;;4594906;19;19994;-79
2024/01/31 07:10:00;;;;;;;24.43;20.17;;;13.80;99.50;;;;;;4595463;19;20473;-79
2024/01/31 07:11:34;;;;;;;29.63;21.87;;;13.80;99.60;;;;;;4596066;19;20006;-79
2024/01/31 07:13:08;;;;;;;25.10;19.57;;;13.80;99.60;;;;;;4594849;19;20022;-80
2024/01/31 07:14:43;;;;;;;25.23;19.80;;;13.70;99.70;;;;;;4594883;19;20014;-80
2024/01/31 07:16:18;;;;;;;26.60;20.80;;;13.80;99.90;;;;;;4594864;19;20118;-79
2024/01/31 07:17:53;;;;;;;28.10;20.37;;;13.90;99.90;;;;;;4596177;19;20010;-79
2024/01/31 07:19:29;;;;;;;25.33;20.67;;;13.90;99.80;;;;;;4596168;19;20002;-79
2024/01/31 07:21:04;;;;;;;25.33;20.27;;;14.00;99.80;;;;;;4595676;19;20013;-76
2024/01/31 07:22:38;;;;;;;26.20;20.87;;;14.10;99.80;;;;;;4595751;19;20096;-78
2024/01/31 07:24:13;;;;;;;25.37;20.43;;;14.10;99.70;;;;;;4595642;19;20014;-78
2024/01/31 07:25:48;;;;;;;24.87;21.30;;;14.20;99.60;;;;;;4595377;19;20448;-79
2024/01/31 07:27:22;;;;;;;22.73;17.77;;;14.30;99.50;;;;;;4595671;19;20299;-78
2024/01/31 07:28:59;;;;;;;23.93;18.47;;;14.30;99.50;;;;;;4592757;19;20014;-78
2024/01/31 07:30:33;;;;;;;23.57;19.33;;;14.30;99.50;;;;;;4594431;19;20069;-79
2024/01/31 07:32:07;;;;;;;24.87;19.67;;;14.30;99.50;;;;;;4595390;19;20432;-78
2024/01/31 07:33:43;;;;;;;25.17;19.73;;;14.30;99.40;;;;;;4595415;19;20011;-78
2024/01/31 07:35:18;;;;;;;24.07;19.20;;;14.30;99.50;;;;;;4595651;19;20432;-78
2024/01/31 07:36:52;;;;;;;25.40;19.83;;;14.30;99.40;;;;;;4593971;19;20002;-78
2024/01/31 07:38:28;;;;;;;25.63;20.17;;;14.30;99.50;;;;;;4595471;19;20021;-79
2024/01/31 07:40:03;;;;;;;25.97;20.43;;;14.30;99.70;;;;;;4595312;19;20003;-78
2024/01/31 07:41:37;;;;;;;32.60;21.40;;;14.30;99.50;;;;;;4595170;19;20089;-78
2024/01/31 07:43:14;;;;;;;24.00;19.43;;;14.30;99.50;;;;;;4595295;19;20006;-78
2024/01/31 07:44:49;;;;;;;24.10;18.97;;;14.30;99.90;;;;;;4595554;19;20013;-78
2024/01/31 07:46:23;;;;;;;24.77;18.67;;;14.40;99.60;;;;;;4594582;19;20007;-78
2024/01/31 07:47:59;;;;;;;23.70;19.47;;;14.30;99.60;;;;;;4593749;19;20039;-78
2024/01/31 07:49:33;;;;;;;21.73;18.03;;;14.30;99.50;;;;;;4594678;19;20074;-77
2024/01/31 07:51:08;;;;;;;24.17;19.03;;;14.30;99.70;;;;;;4595152;19;20018;-78
2024/01/31 07:52:43;;;;;;;25.13;19.93;;;14.30;99.60;;;;;;4594027;19;20100;-79
2024/01/31 07:54:17;;;;;;;26.57;19.37;;;14.20;99.60;;;;;;4593975;19;19998;-78
2024/01/31 07:55:51;;;;;;;23.97;19.20;;;14.20;99.70;;;;;;4594375;19;20014;-78
2024/01/31 07:57:26;;;;;;;23.63;18.30;;;14.10;99.70;;;;;;4593752;19;19995;-78
2024/01/31 07:59:01;;;;;;;23.13;17.47;;;14.20;99.70;;;;;;4594625;19;19995;-78
2024/01/31 08:00:35;;;;;;;22.03;17.53;;;14.20;99.70;;;;;;4593542;19;20434;-78
2024/01/31 08:02:10;;;;;;;23.77;18.23;;;14.10;99.70;;;;;;4594706;19;19998;-78
2024/01/31 08:03:45;;;;;;;24.43;18.00;;;14.10;99.80;;;;;;4592988;19;19999;-78
2024/01/31 08:05:19;;;;;;;20.90;16.67;;;14.10;99.80;;;;;;4593306;19;20002;-78
2024/01/31 08:06:55;;;;;;;22.57;17.00;;;14.10;99.90;;;;;;4592226;19;20444;-81
2024/01/31 08:08:29;;;;;;;23.10;18.00;;;14.10;99.90;;;;;;4593430;19;20012;-81
2024/01/31 08:10:05;;;;;;;21.60;18.20;;;14.10;99.90;;;;;;4595201;19;20425;-76
2024/01/31 08:11:43;;;;;;;22.47;17.90;;;14.10;99.90;;;;;;4593980;19;20441;-77
2024/01/31 08:13:19;;;;;;;22.90;16.83;;;14.10;99.90;;;;;;4594582;19;20009;-79
2024/01/31 08:14:53;;;;;;;21.60;17.80;;;14.00;99.90;;;;;;4594513;19;20006;-80
2024/01/31 08:16:28;;;;;;;22.47;16.70;;;14.00;99.90;;;;;;4593361;19;20015;-78
2024/01/31 08:18:06;;;;;;;21.03;17.43;;;14.00;99.90;;;;;;4595005;19;20062;-80